Time;durP1;ratioP1;P1;durP2;ratioP2;P2;SDS_P1;SDS_P2;PMS_P1;PMS_P2;Temp;Humidity;BMP_temperature;BMP_pressure;BME280_temperature;BME280_humidity;BME280_pressure;Samples;Min_cycle;Max_cycle;Signal;HPM_P1;HPM_P2
2024/04/24 00:02:20;;;;;;;3.40;2.05;;;14.20;84.60;;;;;;5346484;26;20001;-39
2024/04/24 00:04:46;;;;;;;3.38;2.05;;;14.20;84.70;;;;;;5346393;26;20451;-38
2024/04/24 00:07:11;;;;;;;3.72;2.10;;;14.20;84.60;;;;;;5346541;26;20012;-39
2024/04/24 00:09:37;;;;;;;3.60;2.05;;;14.20;84.60;;;;;;5346192;26;20009;-40
2024/04/24 00:12:03;;;;;;;3.65;1.98;;;14.20;84.60;;;;;;5344855;26;20033;-40
2024/04/24 00:14:28;;;;;;;3.30;2.22;;;14.20;84.60;;;;;;5345510;26;19997;-41
2024/04/24 00:16:54;;;;;;;3.15;2.05;;;14.20;84.60;;;;;;5346793;26;20039;-40
2024/04/24 00:19:19;;;;;;;3.40;2.38;;;14.20;84.60;;;;;;5345760;26;20528;-40
2024/04/24 00:21:46;;;;;;;3.45;2.20;;;14.20;84.50;;;;;;5344659;26;19996;-40
2024/04/24 00:24:14;;;;;;;3.08;2.20;;;14.20;84.40;;;;;;5346951;26;20066;-40
2024/04/24 00:26:40;;;;;;;4.15;2.03;;;14.20;84.40;;;;;;5345695;26;19997;-39
2024/04/24 00:29:06;;;;;;;3.25;1.95;;;14.20;84.40;;;;;;5346654;26;19997;-40
2024/04/24 00:31:32;;;;;;;2.38;1.77;;;14.10;84.30;;;;;;5345464;26;19993;-39
2024/04/24 00:33:57;;;;;;;2.85;1.88;;;14.20;84.40;;;;;;5345715;26;20001;-39
2024/04/24 00:36:26;;;;;;;2.85;1.67;;;14.20;84.40;;;;;;5345344;26;20439;-38
2024/04/24 00:38:53;;;;;;;3.38;2.00;;;14.20;84.40;;;;;;5344682;26;20012;-40
2024/04/24 00:41:18;;;;;;;2.78;1.60;;;14.10;84.30;;;;;;5346744;26;20001;-40
2024/04/24 00:43:44;;;;;;;4.18;2.15;;;14.10;84.30;;;;;;5344428;26;20541;-40
2024/04/24 00:46:12;;;;;;;4.03;2.13;;;14.10;84.20;;;;;;5346878;26;19997;-39
2024/04/24 00:48:40;;;;;;;2.75;1.88;;;14.20;84.20;;;;;;5348147;26;20005;-40
2024/04/24 00:51:08;;;;;;;2.88;2.22;;;14.20;84.20;;;;;;5348931;26;20052;-39
2024/04/24 00:53:34;;;;;;;4.20;1.70;;;14.20;84.20;;;;;;5349069;26;20071;-39
2024/04/24 00:56:01;;;;;;;2.70;1.90;;;14.10;84.10;;;;;;5350012;26;20040;-40
2024/04/24 00:58:27;;;;;;;2.45;2.05;;;14.10;84.00;;;;;;5348602;26;20007;-42
2024/04/24 01:00:54;;;;;;;2.97;1.95;;;14.10;84.10;;;;;;5350060;26;19997;-38
2024/04/24 01:03:20;;;;;;;2.85;1.80;;;14.10;84.10;;;;;;5348390;26;20449;-42
2024/04/24 01:05:45;;;;;;;3.10;1.98;;;14.10;84.10;;;;;;5350110;26;20458;-41
2024/04/24 01:08:11;;;;;;;3.40;1.98;;;14.10;84.80;;;;;;5345978;26;20004;-40
2024/04/24 01:10:37;;;;;;;3.53;2.10;;;14.10;84.10;;;;;;5349582;26;20012;-39
2024/04/24 01:13:03;;;;;;;4.95;2.08;;;14.10;84.20;;;;;;5349587;26;19996;-39
2024/04/24 01:15:29;;;;;;;2.30;1.90;;;14.10;84.10;;;;;;5346794;26;20012;-40
2024/04/24 01:17:56;;;;;;;2.45;1.92;;;14.10;84.10;;;;;;5347225;26;20000;-39
2024/04/24 01:20:27;;;;;;;3.40;2.13;;;14.10;85.00;;;;;;5348595;26;19997;-42
2024/04/24 01:23:14;;;;;;;2.72;1.85;;;14.10;84.20;;;;;;5348950;26;20005;-39
2024/04/24 01:25:52;;;;;;;2.50;1.80;;;14.10;84.20;;;;;;5347961;26;20000;-39
2024/04/24 01:28:19;;;;;;;3.33;1.80;;;14.10;84.20;;;;;;5347901;26;20339;-38
2024/04/24 01:30:44;;;;;;;2.08;1.67;;;14.10;84.10;;;;;;5347607;26;20462;-40
2024/04/24 01:33:10;;;;;;;3.63;1.85;;;14.10;84.10;;;;;;5347477;26;20008;-38
2024/04/24 01:35:35;;;;;;;4.25;1.95;;;14.10;84.10;;;;;;5347629;26;20029;-40
2024/04/24 01:38:01;;;;;;;2.88;2.00;;;14.10;84.10;;;;;;5349078;26;20001;-40
2024/04/24 01:40:27;;;;;;;2.42;1.90;;;14.10;84.10;;;;;;5347159;26;20075;-39
2024/04/24 01:42:52;;;;;;;2.67;1.92;;;14.10;84.10;;;;;;5347501;26;20037;-38
2024/04/24 01:45:18;;;;;;;2.97;1.88;;;14.10;84.10;;;;;;5347980;26;19997;-39
2024/04/24 01:47:44;;;;;;;3.08;1.80;;;14.10;84.10;;;;;;5348909;26;20100;-40
2024/04/24 01:50:10;;;;;;;2.17;1.83;;;14.00;84.10;;;;;;5347703;26;19996;-40
2024/04/24 01:52:36;;;;;;;2.50;1.75;;;14.00;84.10;;;;;;5347212;26;20012;-40
2024/04/24 01:55:01;;;;;;;3.15;1.83;;;14.00;84.10;;;;;;5347742;26;20515;-38
2024/04/24 01:57:27;;;;;;;2.17;1.75;;;14.00;84.10;;;;;;5346548;26;20467;-39
2024/04/24 01:59:52;;;;;;;3.03;1.80;;;14.00;84.20;;;;;;5347449;26;20005;-40
2024/04/24 02:02:18;;;;;;;2.15;1.63;;;14.00;84.20;;;;;;5347795;26;19997;-42
2024/04/24 02:04:44;;;;;;;2.05;1.60;;;14.00;84.10;;;;;;5346795;26;19997;-40
2024/04/24 02:07:09;;;;;;;2.72;1.77;;;14.00;84.10;;;;;;5348989;26;20065;-40
2024/04/24 02:09:35;;;;;;;2.38;1.85;;;14.00;84.10;;;;;;5347538;26;20025;-38
2024/04/24 02:12:01;;;;;;;3.92;2.20;;;14.00;84.20;;;;;;5347388;26;20009;-38
2024/04/24 02:14:26;;;;;;;5.07;2.42;;;14.00;84.20;;;;;;5346976;26;20009;-40
2024/04/24 02:16:52;;;;;;;5.78;2.35;;;14.00;84.10;;;;;;5347453;26;19997;-40
2024/04/24 02:19:17;;;;;;;3.38;2.08;;;14.00;84.10;;;;;;5347666;26;20474;-40
2024/04/24 02:21:43;;;;;;;2.20;1.88;;;14.10;84.20;;;;;;5347875;26;19997;-41
2024/04/24 02:24:09;;;;;;;2.75;2.05;;;14.10;84.30;;;;;;5347285;26;20346;-39
2024/04/24 02:26:34;;;;;;;2.70;1.98;;;14.00;84.20;;;;;;5347732;26;19997;-38
2024/04/24 02:29:00;;;;;;;3.83;2.05;;;14.00;84.30;;;;;;5346396;26;20469;-42
2024/04/24 02:31:25;;;;;;;3.38;1.77;;;14.00;84.30;;;;;;5347070;26;19997;-38
2024/04/24 02:33:51;;;;;;;2.97;1.90;;;14.00;84.30;;;;;;5346971;26;20339;-40
2024/04/24 02:36:17;;;;;;;2.58;1.77;;;14.00;84.30;;;;;;5347313;26;19993;-41
2024/04/24 02:38:42;;;;;;;2.55;1.63;;;14.00;84.40;;;;;;5347417;26;20027;-39
2024/04/24 02:41:08;;;;;;;5.15;2.10;;;14.00;84.40;;;;;;5346257;26;20389;-40
2024/04/24 02:43:33;;;;;;;3.40;2.10;;;13.90;84.30;;;;;;5347442;26;20009;-40
2024/04/24 02:45:59;;;;;;;3.00;2.00;;;14.00;84.40;;;;;;5348457;26;20001;-40
2024/04/24 02:48:25;;;;;;;4.05;1.95;;;13.90;84.40;;;;;;5346518;26;20001;-39
2024/04/24 02:50:50;;;;;;;3.00;1.80;;;13.90;84.30;;;;;;5347056;26;20009;-40
2024/04/24 02:53:16;;;;;;;2.75;2.00;;;13.90;84.30;;;;;;5347538;26;20069;-38
2024/04/24 02:55:41;;;;;;;3.05;1.90;;;13.90;84.40;;;;;;5345957;26;20009;-40
2024/04/24 02:58:07;;;;;;;3.40;1.73;;;13.90;84.40;;;;;;5345792;26;20016;-40
2024/04/24 03:00:33;;;;;;;2.85;1.75;;;13.90;84.40;;;;;;5348051;26;20432;-39
2024/04/24 03:02:58;;;;;;;2.47;1.75;;;13.90;84.40;;;;;;5346471;26;20020;-40
2024/04/24 03:05:24;;;;;;;4.38;1.95;;;13.90;84.40;;;;;;5348129;26;19993;-42
2024/04/24 03:07:49;;;;;;;4.07;2.17;;;13.90;84.40;;;;;;5345374;26;20458;-40
2024/04/24 03:10:15;;;;;;;2.97;1.70;;;13.90;84.40;;;;;;5346199;26;20012;-40
2024/04/24 03:12:40;;;;;;;2.83;1.77;;;13.90;84.50;;;;;;5346606;26;20379;-39
2024/04/24 03:15:07;;;;;;;3.67;2.15;;;13.90;85.20;;;;;;5346088;26;19997;-39
2024/04/24 03:17:33;;;;;;;3.50;2.00;;;13.90;84.50;;;;;;5346542;26;20011;-40
2024/04/24 03:19:58;;;;;;;2.33;1.50;;;13.90;84.50;;;;;;5346838;26;19996;-40
2024/04/24 03:22:24;;;;;;;2.28;1.63;;;13.90;84.50;;;;;;5348308;26;20462;-39
2024/04/24 03:24:49;;;;;;;2.13;1.58;;;13.90;84.50;;;;;;5345781;26;20007;-39
2024/04/24 03:27:15;;;;;;;3.08;1.77;;;13.90;84.50;;;;;;5345490;26;20403;-39
2024/04/24 03:29:40;;;;;;;2.72;1.67;;;13.80;84.40;;;;;;5346363;26;19997;-39
2024/04/24 03:32:06;;;;;;;5.20;1.80;;;13.80;84.50;;;;;;5346321;26;19997;-39
2024/04/24 03:34:32;;;;;;;2.22;1.48;;;13.80;85.20;;;;;;5346829;26;20009;-38
2024/04/24 03:36:58;;;;;;;2.35;1.60;;;13.80;84.40;;;;;;5346896;26;20332;-39
2024/04/24 03:39:23;;;;;;;2.67;1.70;;;13.80;84.40;;;;;;5345699;26;19997;-39
2024/04/24 03:41:49;;;;;;;3.58;1.90;;;13.80;84.50;;;;;;5345806;26;20009;-39
2024/04/24 03:44:14;;;;;;;2.70;1.73;;;13.80;84.50;;;;;;5345975;26;19996;-39
2024/04/24 03:46:41;;;;;;;2.08;1.42;;;13.80;84.60;;;;;;5346547;26;20007;-40
2024/04/24 03:49:07;;;;;;;2.50;1.75;;;13.80;84.70;;;;;;5346086;26;20346;-40
2024/04/24 03:51:32;;;;;;;2.58;1.80;;;13.80;84.70;;;;;;5346343;26;20008;-40
2024/04/24 03:53:58;;;;;;;1.90;1.65;;;13.80;84.80;;;;;;5346357;26;19997;-41
2024/04/24 03:56:24;;;;;;;4.53;1.73;;;13.80;84.70;;;;;;5346328;26;20766;-40
2024/04/24 03:58:49;;;;;;;3.70;1.58;;;13.80;84.70;;;;;;5346262;26;20001;-40
2024/04/24 04:01:15;;;;;;;2.92;1.88;;;13.80;84.70;;;;;;5345421;26;20001;-40
2024/04/24 04:03:40;;;;;;;2.15;1.60;;;13.80;84.70;;;;;;5346566;26;20009;-40
2024/04/24 04:06:06;;;;;;;2.83;1.73;;;13.80;84.70;;;;;;5346172;26;20074;-41
2024/04/24 04:08:32;;;;;;;1.73;1.35;;;13.80;84.70;;;;;;5345495;26;20074;-42
2024/04/24 04:10:57;;;;;;;2.72;1.80;;;13.70;84.60;;;;;;5345191;26;20012;-40
2024/04/24 04:13:23;;;;;;;2.58;1.60;;;13.70;84.60;;;;;;5345918;26;20000;-40
2024/04/24 04:15:48;;;;;;;2.10;1.52;;;13.70;84.60;;;;;;5345942;26;20390;-40
2024/04/24 04:18:14;;;;;;;2.08;1.40;;;13.70;84.60;;;;;;5345817;26;20306;-39
2024/04/24 04:20:40;;;;;;;2.38;1.50;;;13.70;84.60;;;;;;5347996;26;20347;-41
2024/04/24 04:23:05;;;;;;;2.50;1.52;;;13.70;84.60;;;;;;5349714;26;20009;-40
2024/04/24 04:25:31;;;;;;;3.10;2.00;;;13.70;84.60;;;;;;5348682;26;20063;-39
2024/04/24 04:27:57;;;;;;;5.68;1.80;;;13.70;84.60;;;;;;5348551;26;20342;-38
2024/04/24 04:30:23;;;;;;;3.55;1.90;;;13.70;84.60;;;;;;5348362;26;20077;-40
2024/04/24 04:32:48;;;;;;;3.03;1.80;;;13.70;84.60;;;;;;5348143;26;19997;-42
2024/04/24 04:35:14;;;;;;;2.88;1.75;;;13.60;84.70;;;;;;5348375;26;20520;-39
2024/04/24 04:37:40;;;;;;;2.80;1.73;;;13.70;84.70;;;;;;5348028;26;20074;-41
2024/04/24 04:40:06;;;;;;;2.15;1.48;;;13.70;84.70;;;;;;5348819;26;19997;-39
2024/04/24 04:42:32;;;;;;;2.42;1.70;;;13.60;84.70;;;;;;5349797;26;19997;-39
2024/04/24 04:44:57;;;;;;;2.38;1.60;;;13.70;84.70;;;;;;5347565;26;20054;-40
2024/04/24 04:47:23;;;;;;;2.55;1.95;;;13.60;84.60;;;;;;5347664;26;20008;-40
2024/04/24 04:49:49;;;;;;;2.20;1.70;;;13.70;84.70;;;;;;5348633;26;19997;-39
2024/04/24 04:52:14;;;;;;;2.33;1.77;;;13.70;84.70;;;;;;5348543;26;20001;-39
2024/04/24 04:54:40;;;;;;;3.63;1.67;;;13.60;84.60;;;;;;5349470;26;20012;-40
2024/04/24 04:57:07;;;;;;;2.08;1.50;;;13.60;84.60;;;;;;5348760;26;19997;-39
2024/04/24 04:59:32;;;;;;;1.90;1.42;;;13.60;84.60;;;;;;5349156;26;20012;-41
2024/04/24 05:01:58;;;;;;;2.80;1.60;;;13.60;84.70;;;;;;5347662;26;20008;-40
2024/04/24 05:04:24;;;;;;;2.80;1.70;;;13.60;84.70;;;;;;5347735;26;20074;-40
2024/04/24 05:06:49;;;;;;;2.78;1.65;;;13.60;84.70;;;;;;5347950;26;20000;-39
2024/04/24 05:09:15;;;;;;;2.08;1.42;;;13.50;84.70;;;;;;5348252;26;19997;-41
2024/04/24 05:11:45;;;;;;;2.38;1.90;;;13.50;84.70;;;;;;5348657;26;19997;-39
2024/04/24 05:14:17;;;;;;;2.03;1.50;;;13.50;84.60;;;;;;5348447;26;20001;-39
2024/04/24 05:16:43;;;;;;;2.22;1.73;;;13.60;84.70;;;;;;5348740;26;20007;-40
2024/04/24 05:19:09;;;;;;;2.28;1.40;;;13.60;84.60;;;;;;5348789;26;19996;-40
2024/04/24 05:21:34;;;;;;;1.95;1.60;;;13.60;84.60;;;;;;5347913;26;20040;-40
2024/04/24 05:24:01;;;;;;;2.80;1.65;;;13.60;84.60;;;;;;5348691;26;20001;-41
2024/04/24 05:29:10;;;;;;;3.75;1.58;;;13.60;84.50;;;;;;5347809;26;20037;-39
2024/04/24 05:31:37;;;;;;;2.30;1.60;;;13.60;84.60;;;;;;5347574;26;20450;-40
2024/04/24 05:34:03;;;;;;;2.17;1.50;;;13.60;84.60;;;;;;5347353;26;20025;-39
2024/04/24 05:36:29;;;;;;;2.45;1.55;;;13.60;84.60;;;;;;5347278;26;20468;-38
2024/04/24 05:38:54;;;;;;;2.08;1.55;;;13.60;84.70;;;;;;5346984;26;20001;-40
2024/04/24 05:41:20;;;;;;;2.05;1.65;;;13.60;84.60;;;;;;5347066;26;20012;-40
2024/04/24 05:43:46;;;;;;;2.33;1.50;;;13.60;84.50;;;;;;5347146;26;20008;-39
2024/04/24 05:46:11;;;;;;;2.35;1.60;;;13.60;84.60;;;;;;5347333;26;20007;-40
2024/04/24 05:48:37;;;;;;;4.07;1.70;;;13.60;84.60;;;;;;5347986;26;20016;-39
2024/04/24 05:51:04;;;;;;;3.35;1.73;;;13.60;84.50;;;;;;5348359;26;20001;-40
2024/04/24 05:53:30;;;;;;;2.70;1.80;;;13.60;84.60;;;;;;5347559;26;20008;-39
2024/04/24 05:55:56;;;;;;;3.00;1.75;;;13.60;84.50;;;;;;5347864;26;19997;-38
2024/04/24 05:58:22;;;;;;;2.15;1.52;;;13.60;84.50;;;;;;5347723;26;20001;-41
2024/04/24 06:00:47;;;;;;;2.70;1.90;;;13.70;84.60;;;;;;5347778;26;20349;-40
2024/04/24 06:03:13;;;;;;;2.60;1.65;;;13.60;84.50;;;;;;5348884;26;19997;-40
2024/04/24 06:05:40;;;;;;;3.30;1.80;;;13.70;84.60;;;;;;5346950;26;20001;-41
2024/04/24 06:08:06;;;;;;;2.30;1.67;;;13.60;84.50;;;;;;5346988;26;20001;-40
2024/04/24 06:10:32;;;;;;;2.95;1.88;;;13.70;84.60;;;;;;5347392;26;20075;-40
2024/04/24 06:12:57;;;;;;;2.45;1.90;;;13.70;84.60;;;;;;5346707;26;20012;-40
2024/04/24 06:15:23;;;;;;;2.75;1.92;;;13.70;84.70;;;;;;5346971;26;19997;-38
2024/04/24 06:17:49;;;;;;;2.70;1.73;;;13.60;84.70;;;;;;5348335;26;20004;-40
2024/04/24 06:20:16;;;;;;;2.40;1.70;;;13.60;84.70;;;;;;5348016;26;20390;-40
2024/04/24 06:22:42;;;;;;;3.20;2.25;;;13.60;84.80;;;;;;5347813;26;20011;-40
2024/04/24 06:25:09;;;;;;;2.40;1.60;;;13.60;84.90;;;;;;5347506;26;20335;-40
2024/04/24 06:27:34;;;;;;;9.13;3.90;;;13.60;85.00;;;;;;5347605;26;19996;-41
2024/04/24 06:30:00;;;;;;;6.03;4.18;;;13.50;75.30;;;;;;5347362;26;20012;-38
2024/04/24 06:32:26;;;;;;;4.90;3.92;;;13.20;76.60;;;;;;5347649;26;20008;-40
2024/04/24 06:34:51;;;;;;;6.22;3.58;;;13.10;78.00;;;;;;5347616;26;20007;-39
2024/04/24 06:37:17;;;;;;;6.65;3.40;;;13.10;79.00;;;;;;5347727;26;20027;-39
2024/04/24 06:39:43;;;;;;;6.07;3.80;;;13.10;79.60;;;;;;5345156;26;20008;-40
2024/04/24 06:42:08;;;;;;;5.07;3.50;;;13.20;79.90;;;;;;5346645;26;20346;-40
2024/04/24 06:44:37;;;;;;;4.78;3.22;;;13.20;80.20;;;;;;5346729;26;19997;-41
2024/04/24 06:47:03;;;;;;;5.63;3.50;;;13.30;80.50;;;;;;5347113;26;20343;-38
2024/04/24 06:49:28;;;;;;;6.15;3.08;;;13.40;81.60;;;;;;5346540;26;20001;-38
2024/04/24 06:51:54;;;;;;;4.20;3.10;;;13.40;81.00;;;;;;5347394;26;20011;-41
2024/04/24 06:54:20;;;;;;;6.03;2.90;;;13.40;81.10;;;;;;5347690;26;20405;-38
2024/04/24 06:56:45;;;;;;;5.30;3.10;;;13.50;82.10;;;;;;5347022;26;20043;-40
2024/04/24 06:59:11;;;;;;;5.65;2.85;;;13.50;81.40;;;;;;5346885;26;20009;-38
2024/04/24 07:01:37;;;;;;;4.07;2.97;;;13.50;81.60;;;;;;5347864;26;20009;-40
2024/04/24 07:04:02;;;;;;;7.00;2.90;;;13.50;81.60;;;;;;5346729;26;20028;-40
2024/04/24 07:06:28;;;;;;;4.80;2.40;;;13.50;81.70;;;;;;5346525;26;20453;-41
2024/04/24 07:08:54;;;;;;;3.60;2.47;;;13.50;81.90;;;;;;5346470;26;20327;-40
2024/04/24 07:11:19;;;;;;;3.53;2.10;;;13.50;82.00;;;;;;5344470;26;20001;-39
2024/04/24 07:13:45;;;;;;;4.20;2.78;;;13.60;82.10;;;;;;5347477;26;20027;-42
2024/04/24 07:16:10;;;;;;;4.70;2.42;;;13.50;82.20;;;;;;5347055;26;20032;-38
2024/04/24 07:18:36;;;;;;;4.65;2.35;;;13.60;82.20;;;;;;5346401;26;20008;-39
2024/04/24 07:21:02;;;;;;;3.58;2.38;;;13.60;82.30;;;;;;5345536;26;20350;-38
2024/04/24 07:23:27;;;;;;;2.65;2.33;;;13.60;82.40;;;;;;5346093;26;19997;-40
2024/04/24 07:25:53;;;;;;;3.70;2.30;;;13.50;82.40;;;;;;5344422;26;19997;-39
2024/04/24 07:28:18;;;;;;;4.03;2.22;;;13.60;82.60;;;;;;5345873;26;20361;-38
2024/04/24 07:30:44;;;;;;;4.18;2.00;;;13.50;82.50;;;;;;5346313;26;20001;-39
2024/04/24 07:33:10;;;;;;;2.92;2.20;;;13.60;82.70;;;;;;5347779;26;20001;-39
2024/04/24 07:35:35;;;;;;;4.80;2.10;;;13.50;82.70;;;;;;5347272;26;20401;-39
2024/04/24 07:38:01;;;;;;;3.22;2.00;;;13.50;82.80;;;;;;5347076;26;20001;-40
2024/04/24 07:40:26;;;;;;;3.85;2.15;;;13.60;82.90;;;;;;5345639;26;20381;-41
2024/04/24 07:42:52;;;;;;;4.25;2.22;;;13.60;83.00;;;;;;5345352;26;20000;-41
2024/04/24 07:45:18;;;;;;;2.80;2.03;;;13.50;83.00;;;;;;5347397;26;20051;-40
2024/04/24 07:47:44;;;;;;;3.95;2.22;;;13.60;83.10;;;;;;5344223;26;20078;-38
2024/04/24 07:50:10;;;;;;;2.83;1.85;;;13.60;83.20;;;;;;5345783;26;20369;-41
2024/04/24 07:52:37;;;;;;;2.45;1.80;;;13.60;83.20;;;;;;5346162;26;20421;-41
2024/04/24 07:55:02;;;;;;;3.03;1.85;;;13.60;83.30;;;;;;5345887;26;19997;-40
2024/04/24 07:57:28;;;;;;;3.72;2.10;;;13.50;83.30;;;;;;5345631;26;20019;-40
2024/04/24 07:59:54;;;;;;;4.32;2.08;;;13.60;83.40;;;;;;5345812;26;20012;-40
2024/04/24 08:02:20;;;;;;;2.65;1.80;;;13.50;83.30;;;;;;5345165;26;20338;-41
2024/04/24 08:04:45;;;;;;;3.47;1.95;;;13.50;83.30;;;;;;5346164;26;20009;-39
2024/04/24 08:07:11;;;;;;;3.28;2.08;;;13.50;83.30;;;;;;5346385;26;20041;-40
2024/04/24 08:09:37;;;;;;;2.63;1.95;;;13.50;83.40;;;;;;5347041;26;20001;-41
2024/04/24 08:12:05;;;;;;;3.05;2.22;;;13.50;83.40;;;;;;5346217;26;20009;-38
2024/04/24 08:14:31;;;;;;;3.33;2.13;;;13.60;83.50;;;;;;5346335;26;20012;-40
2024/04/24 08:16:57;;;;;;;2.53;1.95;;;13.50;83.50;;;;;;5346993;26;19997;-39
2024/04/24 08:19:23;;;;;;;3.08;2.10;;;13.60;83.50;;;;;;5345942;26;19997;-40
2024/04/24 08:21:48;;;;;;;2.85;2.05;;;13.60;83.60;;;;;;5345126;26;19997;-38
2024/04/24 08:24:14;;;;;;;3.08;2.00;;;13.50;83.70;;;;;;5345770;26;19996;-40
2024/04/24 08:26:40;;;;;;;3.38;1.95;;;13.50;83.60;;;;;;5346414;26;20008;-41
2024/04/24 08:29:05;;;;;;;3.22;2.25;;;13.60;83.60;;;;;;5345864;26;20001;-38
2024/04/24 08:31:31;;;;;;;2.20;1.80;;;13.50;83.60;;;;;;5346036;26;20500;-39
2024/04/24 08:33:57;;;;;;;3.05;2.00;;;13.50;83.70;;;;;;5342986;26;19997;-40
2024/04/24 08:36:22;;;;;;;7.07;3.83;;;13.50;83.70;;;;;;5344293;26;20388;-37
2024/04/24 08:38:48;;;;;;;10.45;5.05;;;13.50;79.90;;;;;;5344466;26;20005;-38
2024/04/24 08:41:13;;;;;;;4.85;4.32;;;13.40;77.30;;;;;;5345359;26;20455;-39
2024/04/24 08:43:41;;;;;;;8.38;4.20;;;13.30;77.80;;;;;;5343685;26;19997;-39
2024/04/24 08:46:12;;;;;;;5.13;4.15;;;13.30;79.00;;;;;;5345886;26;19997;-38
2024/04/24 08:48:42;;;;;;;6.82;4.35;;;13.30;79.70;;;;;;5345005;26;20075;-38
2024/04/24 08:51:09;;;;;;;6.43;3.80;;;13.30;80.20;;;;;;5345151;26;20008;-37
2024/04/24 08:53:36;;;;;;;4.82;3.35;;;13.30;80.40;;;;;;5345882;26;20051;-39
2024/04/24 08:56:07;;;;;;;7.40;3.40;;;13.30;80.70;;;;;;5344149;26;20074;-38
2024/04/24 08:58:36;;;;;;;7.32;3.40;;;13.40;80.90;;;;;;5344149;26;20638;-40
2024/04/24 09:01:08;;;;;;;5.95;3.17;;;13.40;81.10;;;;;;5344794;26;20012;-40
2024/04/24 09:03:41;;;;;;;4.32;3.05;;;13.40;81.20;;;;;;5344799;26;20038;-40
2024/04/24 09:06:09;;;;;;;4.30;2.90;;;13.40;81.30;;;;;;5345719;26;20048;-40
2024/04/24 09:08:35;;;;;;;4.55;2.72;;;13.40;81.50;;;;;;5347565;26;20459;-39
2024/04/24 09:11:01;;;;;;;4.25;2.97;;;13.40;81.60;;;;;;5348743;26;20344;-37
2024/04/24 09:13:28;;;;;;;3.28;2.55;;;13.40;81.80;;;;;;5348773;26;20045;-40
2024/04/24 09:15:55;;;;;;;3.30;2.40;;;13.40;81.90;;;;;;5349336;26;20334;-38
2024/04/24 09:18:21;;;;;;;3.63;2.33;;;13.40;82.00;;;;;;5348202;26;20001;-37
2024/04/24 09:20:47;;;;;;;4.38;2.47;;;13.40;82.10;;;;;;5347334;26;20381;-38
2024/04/24 09:23:18;;;;;;;3.30;2.30;;;13.40;82.20;;;;;;5347321;26;20349;-37
2024/04/24 09:25:44;;;;;;;3.80;2.25;;;13.40;82.30;;;;;;5347447;26;20041;-40
2024/04/24 09:28:10;;;;;;;5.13;2.40;;;13.40;82.40;;;;;;5348859;26;20354;-39
2024/04/24 09:30:38;;;;;;;3.28;2.10;;;13.40;82.60;;;;;;5348779;26;20025;-40
2024/04/24 09:33:04;;;;;;;3.90;2.35;;;13.40;82.70;;;;;;5346552;26;20015;-37
2024/04/24 09:35:30;;;;;;;5.20;1.98;;;13.30;82.70;;;;;;5348152;26;20032;-39
2024/04/24 09:37:57;;;;;;;3.60;2.40;;;13.40;82.80;;;;;;5349468;26;19997;-38
2024/04/24 09:40:24;;;;;;;3.10;1.98;;;13.40;83.50;;;;;;5347830;26;20012;-39
2024/04/24 09:42:50;;;;;;;4.30;2.30;;;13.40;82.90;;;;;;5348436;26;20320;-39
2024/04/24 09:45:19;;;;;;;4.00;2.10;;;13.40;82.90;;;;;;5349021;26;19997;-41
2024/04/24 09:47:45;;;;;;;3.30;2.10;;;13.40;82.90;;;;;;5347226;26;20008;-39
2024/04/24 09:50:14;;;;;;;2.20;1.77;;;13.40;83.00;;;;;;5347381;26;20033;-39
2024/04/24 09:52:49;;;;;;;2.92;2.00;;;13.40;83.00;;;;;;5346599;26;20075;-40
2024/04/24 09:55:15;;;;;;;2.92;2.20;;;13.40;83.00;;;;;;5347625;26;20013;-40
2024/04/24 09:57:44;;;;;;;2.50;1.70;;;13.40;83.10;;;;;;5347717;26;20082;-40
2024/04/24 10:00:12;;;;;;;3.78;1.88;;;13.30;83.10;;;;;;5347644;26;20324;-40
2024/04/24 10:02:42;;;;;;;3.40;1.92;;;13.40;83.10;;;;;;5347411;26;20009;-40
2024/04/24 10:05:16;;;;;;;2.25;1.77;;;13.40;83.20;;;;;;5348038;26;20358;-40
2024/04/24 10:07:49;;;;;;;2.30;1.80;;;13.40;83.30;;;;;;5346676;26;20454;-41
2024/04/24 10:10:18;;;;;;;1.73;1.60;;;13.40;83.50;;;;;;5346782;26;20000;-38
2024/04/24 10:12:47;;;;;;;2.65;1.73;;;13.40;83.50;;;;;;5346823;26;20001;-38
2024/04/24 10:15:18;;;;;;;4.43;1.80;;;13.30;83.60;;;;;;5347398;26;20258;-37
2024/04/24 10:17:45;;;;;;;3.33;1.65;;;13.40;83.70;;;;;;5346456;26;20088;-39
2024/04/24 10:20:11;;;;;;;2.15;1.65;;;13.40;83.80;;;;;;5347050;26;20425;-37
2024/04/24 10:22:38;;;;;;;2.60;1.42;;;13.30;83.80;;;;;;5348283;26;19997;-37
2024/04/24 10:25:05;;;;;;;4.95;1.65;;;13.40;83.90;;;;;;5347102;26;20487;-40
2024/04/24 10:27:32;;;;;;;1.55;1.20;;;13.40;84.00;;;;;;5346547;26;20416;-37
2024/04/24 10:29:58;;;;;;;2.08;1.55;;;13.40;84.10;;;;;;5346648;26;20000;-40
2024/04/24 10:32:29;;;;;;;1.63;1.23;;;13.30;84.10;;;;;;5346509;26;20001;-39
2024/04/24 10:34:56;;;;;;;2.33;1.40;;;13.40;84.60;;;;;;5348218;26;20320;-40
2024/04/24 10:37:21;;;;;;;2.15;1.40;;;13.40;84.30;;;;;;5347668;26;20008;-39
2024/04/24 10:39:49;;;;;;;1.60;1.27;;;13.40;84.30;;;;;;5346546;26;20453;-38
2024/04/24 10:42:15;;;;;;;2.17;1.50;;;13.40;84.30;;;;;;5346312;26;20454;-37
2024/04/24 10:44:45;;;;;;;2.50;1.48;;;13.40;84.20;;;;;;5345577;26;20036;-42
2024/04/24 10:47:11;;;;;;;4.40;1.50;;;13.40;84.10;;;;;;5346556;26;20354;-37
2024/04/24 10:49:40;;;;;;;1.95;1.38;;;13.40;84.10;;;;;;5347947;26;20012;-40
2024/04/24 10:52:07;;;;;;;1.80;1.25;;;13.40;84.10;;;;;;5347552;26;20062;-40
2024/04/24 10:54:33;;;;;;;2.17;1.48;;;13.50;84.20;;;;;;5347094;26;20005;-40
2024/04/24 10:56:58;;;;;;;1.92;1.40;;;13.50;84.20;;;;;;5347037;26;19997;-38
2024/04/24 10:59:31;;;;;;;1.65;1.30;;;13.50;84.20;;;;;;5347519;26;20008;-40
2024/04/24 11:02:17;;;;;;;3.10;2.45;;;13.50;84.30;;;;;;5347078;26;19997;-37
2024/04/24 11:04:52;;;;;;;4.35;2.53;;;13.50;80.30;;;;;;5346800;26;19997;-40
2024/04/24 11:07:17;;;;;;;3.25;2.10;;;13.40;80.90;;;;;;5347523;26;20342;-39
2024/04/24 11:09:46;;;;;;;3.90;2.10;;;13.40;81.50;;;;;;5346457;26;19997;-38
2024/04/24 11:12:35;;;;;;;4.15;1.73;;;13.40;82.00;;;;;;5346254;26;19997;-39
2024/04/24 11:15:01;;;;;;;3.45;1.60;;;13.40;82.60;;;;;;5346173;26;19994;-37
2024/04/24 11:17:27;;;;;;;1.60;1.50;;;13.40;82.50;;;;;;5346001;26;20001;-37
2024/04/24 11:19:53;;;;;;;1.67;1.35;;;13.40;82.70;;;;;;5346326;26;20454;-38
2024/04/24 11:22:31;;;;;;;1.77;1.60;;;13.40;82.80;;;;;;5346483;26;20136;-40
2024/04/24 11:25:06;;;;;;;3.13;1.60;;;13.50;82.90;;;;;;5346677;26;19993;-38
2024/04/24 11:27:32;;;;;;;2.38;1.52;;;13.50;83.00;;;;;;5346699;26;20001;-38
2024/04/24 11:29:57;;;;;;;1.63;1.38;;;13.60;83.10;;;;;;5346540;26;19997;-40
2024/04/24 11:32:23;;;;;;;2.15;1.40;;;13.60;83.30;;;;;;5345774;26;20000;-38
2024/04/24 11:34:50;;;;;;;1.30;1.17;;;13.60;83.20;;;;;;5346911;26;19997;-40
2024/04/24 11:37:16;;;;;;;3.35;1.30;;;13.70;83.30;;;;;;5346527;26;20023;-37
2024/04/24 11:39:42;;;;;;;2.13;0.98;;;13.70;83.30;;;;;;5347023;26;20011;-39
2024/04/24 11:42:08;;;;;;;1.23;1.00;;;13.70;83.30;;;;;;5345879;26;20016;-37
2024/04/24 11:44:34;;;;;;;2.13;1.10;;;13.70;83.30;;;;;;5346508;26;20442;-37
2024/04/24 11:47:00;;;;;;;1.98;1.20;;;13.70;83.20;;;;;;5345676;26;20016;-41
2024/04/24 11:49:26;;;;;;;1.20;0.82;;;13.80;83.40;;;;;;5345813;26;20439;-37
2024/04/24 11:51:54;;;;;;;1.25;1.05;;;13.70;83.30;;;;;;5346561;26;19997;-39
2024/04/24 11:54:20;;;;;;;1.08;0.98;;;13.70;83.40;;;;;;5345506;26;20359;-38
2024/04/24 11:56:49;;;;;;;1.88;1.00;;;13.80;83.50;;;;;;5346518;26;20008;-37
2024/04/24 11:59:14;;;;;;;1.33;1.00;;;13.80;83.50;;;;;;5346494;26;19997;-38
2024/04/24 12:01:41;;;;;;;1.17;0.93;;;13.70;83.30;;;;;;5346375;26;20012;-37
2024/04/24 12:04:07;;;;;;;1.52;1.00;;;13.80;83.40;;;;;;5345805;26;20332;-39
2024/04/24 12:06:40;;;;;;;1.48;0.85;;;13.80;83.40;;;;;;5346304;26;20008;-39
2024/04/24 12:09:10;;;;;;;1.40;1.00;;;13.80;83.40;;;;;;5344842;26;19997;-39
2024/04/24 12:11:44;;;;;;;1.90;1.00;;;13.80;83.40;;;;;;5345490;26;20390;-39
2024/04/24 12:14:15;;;;;;;3.75;2.08;;;13.80;83.40;;;;;;5346241;26;19997;-38
2024/04/24 12:16:44;;;;;;;2.03;1.73;;;13.80;80.40;;;;;;5345400;26;20001;-40
2024/04/24 12:19:11;;;;;;;3.83;2.08;;;13.70;80.00;;;;;;5345249;26;20001;-39
2024/04/24 12:21:37;;;;;;;4.70;1.85;;;13.70;80.80;;;;;;5345534;26;20040;-38
2024/04/24 12:24:03;;;;;;;5.70;1.40;;;13.70;81.40;;;;;;5345136;26;20362;-38
2024/04/24 12:26:28;;;;;;;3.38;1.75;;;13.70;81.50;;;;;;5345701;26;19997;-39
2024/04/24 12:28:54;;;;;;;3.88;1.75;;;13.70;81.80;;;;;;5344861;26;20008;-40
2024/04/24 12:31:20;;;;;;;2.10;1.38;;;13.60;82.10;;;;;;5345519;26;20357;-39
2024/04/24 12:33:45;;;;;;;2.22;1.50;;;13.70;82.20;;;;;;5345171;26;20012;-38
2024/04/24 12:36:11;;;;;;;2.13;1.52;;;13.70;82.50;;;;;;5344738;26;20401;-40
2024/04/24 12:38:36;;;;;;;3.67;1.58;;;13.70;82.60;;;;;;5345812;26;20001;-40
2024/04/24 12:41:02;;;;;;;2.10;1.50;;;13.70;82.70;;;;;;5345824;26;20004;-40
2024/04/24 12:43:28;;;;;;;1.90;1.20;;;13.80;82.80;;;;;;5348238;26;20000;-38
2024/04/24 12:45:54;;;;;;;1.92;1.00;;;13.80;82.90;;;;;;5348270;26;20003;-37
2024/04/24 12:48:19;;;;;;;2.55;1.63;;;13.80;82.80;;;;;;5349102;26;19997;-37